CheckWX is a tool to help pilots better visualize weather data.  It is not intended as a substitute for an official pre-flight weather briefing.

19:44:07 UTC

KCID METAR
The Eastern Iowa Airport
Cedar Rapids, Iowa, USA
Current

39 mins ago

KCID 211905Z 18009G20KT 5SM -RA BR BKN008 OVC013 22/22 A2995 RMK AO2 RAB1854 CIG 006V012 P0001 T02220222
Observed
Sep-21 @ 19:05 UTC
Wind
  • 180° at 9 KTS
  • Gusting to 20 KTS
Visibility
5 SM
Flight Rules
IFR
Conditions
Light Rain, Mist
Cloud Levels
  • Broken at 800' AGL
  • Overcast at 1,300' AGL
Temperature
22°C / 72°F
Dewpoint
22°C / 72°F
Humidity
100%
Altimeter
29.95" Hg
Pressure
1014.22 hPa
Current Rain
0.01"
Previous

52 mins ago

KCID 211852Z 19010G19KT 6SM BR OVC010 22/22 A2994 RMK AO2 LTG DSNT SE RAB03E29 SLP134 P0000 T02220217
Observed
Sep-21 @ 18:52 UTC
Wind
  • 190° at 10 KTS
  • Gusting to 19 KTS
Visibility
6 SM
Flight Rules
MVFR
Conditions
Mist
Cloud Levels
  • Overcast at 1,000' AGL
Temperature
22°C / 72°F
Dewpoint
22°C / 72°F
Humidity
100%
Altimeter
29.94" Hg
Pressure
1013.92 hPa
Current Rain
0.01"
Previous

2 hours ago

KCID 211752Z 17013KT 8SM OVC010 22/22 A2994 RMK AO2 RAE39 CIG 007V014 SLP134 P0003 60032 T02220217 10222 20211 58009
Observed
Sep-21 @ 17:52 UTC
Wind
  • 170° at 13 KTS
Visibility
8 SM
Flight Rules
MVFR
Cloud Levels
  • Overcast at 1,000' AGL
Temperature
22°C / 72°F
Dewpoint
22°C / 72°F
Humidity
100%
Altimeter
29.94" Hg
Pressure
1013.92 hPa
Current Rain
0.03"